Time;durP1;ratioP1;P1;durP2;ratioP2;P2;SDS_P1;SDS_P2;PMS_P1;PMS_P2;Temp;Humidity;BMP_temperature;BMP_pressure;BME280_temperature;BME280_humidity;BME280_pressure;Samples;Min_cycle;Max_cycle;Signal;HPM_P1;HPM_P2
2021/10/06 00:00:39;;;;;;;4.22;1.73;;;;;;;19.36;56.46;101502.59;5008624;28;20053;-61
2021/10/06 00:03:04;;;;;;;5.40;1.90;;;;;;;19.37;56.65;101503.44;5009861;28;20486;-61
2021/10/06 00:05:30;;;;;;;3.95;1.73;;;;;;;19.37;56.53;101500.78;4991480;28;20030;-61
2021/10/06 00:07:55;;;;;;;3.50;1.83;;;;;;;19.37;56.89;101514.09;5021423;28;20060;-61
2021/10/06 00:10:21;;;;;;;2.60;1.52;;;;;;;19.35;56.97;101524.06;5010553;28;20046;-62
2021/10/06 00:12:46;;;;;;;5.88;1.90;;;;;;;19.35;56.76;101521.41;4990970;28;20038;-62
2021/10/06 00:15:12;;;;;;;3.13;1.70;;;;;;;19.35;56.79;101526.72;4991320;28;20030;-61
2021/10/06 00:17:39;;;;;;;4.35;2.00;;;;;;;19.36;56.55;101531.06;5008474;28;20419;-61
2021/10/06 00:20:06;;;;;;;2.95;1.70;;;;;;;19.36;56.82;101533.72;5025013;28;20041;-61
2021/10/06 00:22:32;;;;;;;3.67;1.60;;;;;;;19.34;56.56;101525.91;5028804;28;20029;-61
2021/10/06 00:24:57;;;;;;;3.80;1.52;;;;;;;19.34;56.56;101517.94;5028710;28;20181;-61
2021/10/06 00:27:23;;;;;;;4.30;2.40;;;;;;;19.34;56.61;101533.88;5011227;28;20048;-62
2021/10/06 00:29:48;;;;;;;4.95;1.83;;;;;;;19.35;56.43;101540.03;4996789;28;20049;-62
2021/10/06 00:32:14;;;;;;;2.80;1.63;;;;;;;19.34;56.41;101547.19;5008530;28;20052;-61
2021/10/06 00:34:39;;;;;;;4.07;2.28;;;;;;;19.35;56.51;101550.69;4991181;28;20093;-61
2021/10/06 00:37:05;;;;;;;3.47;1.42;;;;;;;19.33;56.63;101555.34;5008898;28;20030;-61
2021/10/06 00:39:30;;;;;;;2.53;1.63;;;;;;;19.33;56.64;101548.19;5001742;28;20037;-61
2021/10/06 00:41:56;;;;;;;3.35;1.60;;;;;;;19.34;56.64;101543.69;5010981;28;20030;-61
2021/10/06 00:44:22;;;;;;;2.45;1.70;;;;;;;19.33;56.42;101542.06;5010395;28;20056;-61
2021/10/06 00:46:48;;;;;;;3.95;1.90;;;;;;;19.33;56.16;101556.19;5013705;28;20052;-61
2021/10/06 00:49:15;;;;;;;4.35;2.17;;;;;;;19.32;56.63;101557.19;5024083;28;20045;-61
2021/10/06 00:51:41;;;;;;;3.63;1.50;;;;;;;19.33;56.48;101566.00;4994831;28;20127;-62
2021/10/06 00:54:07;;;;;;;2.33;1.38;;;;;;;19.33;56.54;101560.66;4995301;28;20120;-61
2021/10/06 00:56:33;;;;;;;3.45;1.50;;;;;;;19.33;56.46;101566.00;5012368;28;20365;-61
2021/10/06 00:58:58;;;;;;;2.95;1.40;;;;;;;19.33;56.20;101563.34;5017460;28;20041;-61
2021/10/06 01:01:24;;;;;;;3.85;1.85;;;;;;;19.32;56.39;101567.81;5014076;28;20041;-62
2021/10/06 01:03:50;;;;;;;2.92;1.58;;;;;;;19.32;56.46;101564.34;5016713;28;20026;-61
2021/10/06 01:06:15;;;;;;;2.78;1.45;;;;;;;19.32;56.02;101557.19;5013037;28;20092;-61
2021/10/06 01:08:41;;;;;;;3.78;1.50;;;;;;;19.32;56.26;101556.34;5008590;28;20379;-62
2021/10/06 01:11:08;;;;;;;5.07;1.80;;;;;;;19.32;56.02;101551.03;5012147;28;20045;-61
2021/10/06 01:13:34;;;;;;;2.20;1.30;;;;;;;19.32;56.54;101551.88;5011874;28;20041;-61
2021/10/06 01:15:59;;;;;;;2.03;1.50;;;;;;;19.32;56.38;101556.34;5011987;28;20033;-61
2021/10/06 01:18:25;;;;;;;4.15;1.67;;;;;;;19.31;56.35;101554.72;4998602;28;20033;-61
2021/10/06 01:20:51;;;;;;;2.90;1.50;;;;;;;19.31;56.31;101552.03;5031740;28;20506;-61
2021/10/06 01:23:17;;;;;;;2.60;1.23;;;;;;;19.32;56.01;101559.03;5014153;28;20174;-61
2021/10/06 01:25:43;;;;;;;3.08;1.67;;;;;;;19.31;56.28;101560.84;5031664;28;20057;-61
2021/10/06 01:28:09;;;;;;;2.22;1.33;;;;;;;19.31;56.31;101554.72;5029209;28;20418;-61
2021/10/06 01:30:34;;;;;;;3.58;1.50;;;;;;;19.31;56.27;101552.03;5011395;28;20076;-61
2021/10/06 01:33:00;;;;;;;2.40;1.55;;;;;;;19.30;55.84;101548.56;4977809;28;20073;-61
2021/10/06 01:35:26;;;;;;;2.47;1.40;;;;;;;19.31;55.95;101549.38;5011750;28;20030;-61
2021/10/06 01:37:51;;;;;;;3.22;1.55;;;;;;;19.30;56.28;101547.72;5011773;28;20375;-61
2021/10/06 01:40:24;;;;;;;3.50;1.45;;;;;;;19.29;55.87;101536.25;5013065;28;20042;-61
2021/10/06 01:42:52;;;;;;;2.15;1.50;;;;;;;19.29;56.12;101546.06;5030084;28;20037;-61
2021/10/06 01:45:23;;;;;;;3.08;1.60;;;;;;;19.30;55.90;101550.38;5012682;28;20030;-62
2021/10/06 01:47:49;;;;;;;2.28;1.17;;;;;;;19.29;56.18;101556.72;5013434;28;20035;-62
2021/10/06 01:50:23;;;;;;;2.75;1.48;;;;;;;19.27;56.00;101553.41;5011618;28;20048;-61
2021/10/06 01:52:49;;;;;;;3.08;1.45;;;;;;;19.29;56.24;101551.41;5011063;28;20116;-62
2021/10/06 01:55:15;;;;;;;2.95;1.20;;;;;;;19.29;55.70;101540.75;5010590;28;20038;-61
2021/10/06 01:57:40;;;;;;;3.28;1.60;;;;;;;19.29;56.09;101532.78;5023770;28;20438;-61
2021/10/06 02:00:06;;;;;;;4.40;1.42;;;;;;;19.29;55.73;101543.41;5031092;28;20464;-61
2021/10/06 02:02:32;;;;;;;3.78;1.35;;;;;;;19.28;56.05;101536.44;5030089;28;20036;-63
2021/10/06 02:04:57;;;;;;;2.60;1.40;;;;;;;19.28;55.85;101533.78;5012509;28;20037;-61
2021/10/06 02:07:23;;;;;;;3.33;1.40;;;;;;;19.27;55.68;101532.97;5025313;28;20038;-61
2021/10/06 02:09:48;;;;;;;2.83;1.50;;;;;;;19.27;55.91;101538.28;5010909;28;20495;-61
2021/10/06 02:12:14;;;;;;;2.58;1.27;;;;;;;19.27;56.04;101538.28;4993511;28;20042;-61
2021/10/06 02:14:39;;;;;;;3.38;1.42;;;;;;;19.27;55.94;101532.13;4992658;28;20057;-61
2021/10/06 02:17:05;;;;;;;4.47;1.42;;;;;;;19.26;55.97;101519.84;4993878;28;20045;-61
2021/10/06 02:19:30;;;;;;;2.42;1.20;;;;;;;19.26;55.80;101528.66;5010728;28;20399;-61
2021/10/06 02:21:55;;;;;;;2.33;1.40;;;;;;;19.26;55.98;101536.63;5010693;28;20040;-61
2021/10/06 02:24:21;;;;;;;2.88;1.50;;;;;;;19.26;55.82;101541.13;5010640;28;20041;-62
2021/10/06 02:26:47;;;;;;;2.58;1.40;;;;;;;19.27;55.79;101550.75;4988859;28;20049;-61
2021/10/06 02:29:12;;;;;;;3.03;1.30;;;;;;;19.27;55.95;101548.09;5030400;28;20475;-61
2021/10/06 02:31:38;;;;;;;2.63;1.40;;;;;;;19.26;55.79;101546.44;5029557;28;20041;-61
2021/10/06 02:34:03;;;;;;;2.53;1.20;;;;;;;19.26;55.75;101549.09;5012626;28;20134;-61
2021/10/06 02:36:29;;;;;;;2.30;1.13;;;;;;;19.26;55.63;101554.41;5002459;28;20379;-61
2021/10/06 02:38:54;;;;;;;6.13;1.55;;;;;;;19.25;55.88;101560.72;5010482;28;20045;-62
2021/10/06 02:41:20;;;;;;;2.47;1.33;;;;;;;19.25;56.00;101556.25;4992707;28;20494;-62
2021/10/06 02:43:45;;;;;;;2.92;1.20;;;;;;;19.26;55.56;101557.06;5010086;28;20124;-61
2021/10/06 02:46:10;;;;;;;2.83;1.20;;;;;;;19.24;55.52;101561.72;4993545;28;20384;-62
2021/10/06 02:48:36;;;;;;;2.28;1.30;;;;;;;19.25;55.49;101568.69;5010281;28;20037;-61
2021/10/06 02:51:01;;;;;;;3.17;1.30;;;;;;;19.25;55.53;101566.03;4992627;28;20034;-61
2021/10/06 02:53:27;;;;;;;2.88;1.67;;;;;;;19.24;55.76;101575.84;5010454;28;20116;-61
2021/10/06 02:55:52;;;;;;;2.47;1.13;;;;;;;19.25;55.76;101576.66;5016962;28;20087;-62
2021/10/06 02:58:18;;;;;;;3.95;1.30;;;;;;;19.24;55.44;101580.34;5011756;28;20126;-62
2021/10/06 03:00:43;;;;;;;2.70;1.38;;;;;;;19.24;55.49;101575.84;4994931;28;20152;-61
2021/10/06 03:03:09;;;;;;;2.17;1.20;;;;;;;19.23;55.43;101563.56;5030027;28;20041;-61
2021/10/06 03:05:34;;;;;;;2.15;1.30;;;;;;;19.23;55.47;101568.03;5025175;28;20072;-63
2021/10/06 03:07:59;;;;;;;2.17;1.10;;;;;;;19.24;55.50;101570.53;4991511;28;20394;-61
2021/10/06 03:10:25;;;;;;;2.22;1.20;;;;;;;19.22;55.80;101553.91;4992369;28;20030;-61
2021/10/06 03:12:50;;;;;;;3.40;1.30;;;;;;;19.23;55.63;101563.56;4991707;28;20585;-61
2021/10/06 03:15:16;;;;;;;2.72;1.02;;;;;;;19.23;55.60;101552.91;4980057;28;20037;-61
2021/10/06 03:17:41;;;;;;;2.17;0.90;;;;;;;19.22;55.64;101547.78;5011562;28;20033;-61
2021/10/06 03:20:08;;;;;;;2.88;1.10;;;;;;;19.23;55.79;101538.78;5011896;28;20184;-61
2021/10/06 03:22:34;;;;;;;2.13;0.98;;;;;;;19.22;55.82;101537.97;5029342;28;20124;-61
2021/10/06 03:25:01;;;;;;;2.33;1.00;;;;;;;19.22;55.87;101535.28;5021414;28;20622;-62
2021/10/06 03:27:26;;;;;;;3.03;1.95;;;;;;;19.23;55.42;101531.63;5009863;28;20084;-61
2021/10/06 03:29:52;;;;;;;2.28;1.27;;;;;;;19.23;55.38;101538.78;4991200;28;20033;-61
2021/10/06 03:32:17;;;;;;;2.13;1.13;;;;;;;19.22;55.83;101542.44;4991486;28;20034;-61
2021/10/06 03:34:43;;;;;;;3.53;1.08;;;;;;;19.22;55.70;101545.09;5012241;28;20040;-61
2021/10/06 03:37:08;;;;;;;3.75;1.25;;;;;;;19.22;55.48;101551.25;5029326;28;20114;-61
2021/10/06 03:39:34;;;;;;;2.92;1.10;;;;;;;19.21;55.57;101543.47;5011594;28;20044;-61
2021/10/06 03:42:00;;;;;;;2.25;1.10;;;;;;;19.22;55.64;101547.78;5028916;28;20044;-61
2021/10/06 03:44:26;;;;;;;3.20;1.45;;;;;;;19.23;55.43;101544.09;5027731;28;20033;-61
2021/10/06 03:46:51;;;;;;;3.78;1.30;;;;;;;19.21;55.39;101541.63;5008706;28;20046;-61
2021/10/06 03:49:16;;;;;;;2.00;1.00;;;;;;;19.22;55.69;101547.78;5009642;28;20112;-61
2021/10/06 03:51:42;;;;;;;2.55;1.45;;;;;;;19.22;55.57;101558.41;5009028;28;20042;-62
2021/10/06 03:54:07;;;;;;;1.33;0.80;;;;;;;19.21;55.69;101557.59;4991805;28;20034;-62
2021/10/06 03:56:33;;;;;;;2.10;1.00;;;;;;;19.21;55.69;101562.06;5008876;28;20045;-61
2021/10/06 03:58:58;;;;;;;1.90;0.95;;;;;;;19.21;55.53;101564.72;5010662;28;20041;-61
2021/10/06 04:01:24;;;;;;;0.85;0.70;;;;;;;19.21;55.78;101576.19;5028757;28;20506;-61
2021/10/06 04:03:49;;;;;;;2.00;1.10;;;;;;;19.22;55.54;101571.72;5010965;28;20542;-61
2021/10/06 04:06:15;;;;;;;2.80;1.10;;;;;;;19.20;55.69;101565.75;4993603;28;20030;-61
2021/10/06 04:08:41;;;;;;;2.15;1.00;;;;;;;19.21;55.85;101578.03;4991112;28;20038;-61
2021/10/06 04:11:06;;;;;;;2.03;1.00;;;;;;;19.21;55.72;101578.88;5009175;28;20471;-61
2021/10/06 04:13:32;;;;;;;1.48;0.80;;;;;;;19.20;55.94;101581.69;5008718;28;20034;-61
2021/10/06 04:15:57;;;;;;;2.15;0.95;;;;;;;19.21;55.67;101580.69;5023062;28;20836;-61
2021/10/06 04:18:23;;;;;;;1.52;1.00;;;;;;;19.20;55.63;101585.19;5010897;28;20410;-61
2021/10/06 04:20:48;;;;;;;2.17;0.80;;;;;;;19.20;55.61;101592.34;5014452;28;20813;-61
2021/10/06 04:23:14;;;;;;;2.67;1.10;;;;;;;19.19;55.65;101598.66;4998871;28;20088;-61
2021/10/06 04:25:39;;;;;;;2.25;1.00;;;;;;;19.19;55.75;101590.69;4994802;28;20487;-63
2021/10/06 04:28:05;;;;;;;1.80;1.10;;;;;;;19.18;55.49;101597.00;4994587;28;20041;-61
2021/10/06 04:30:31;;;;;;;1.70;0.93;;;;;;;19.18;55.65;101608.47;4995017;28;20038;-62
2021/10/06 04:32:56;;;;;;;2.00;1.08;;;;;;;19.18;55.66;101613.78;5012861;28;20041;-61
2021/10/06 04:35:22;;;;;;;1.70;0.90;;;;;;;19.18;55.46;101610.31;5024742;28;20343;-61
2021/10/06 04:37:47;;;;;;;1.50;0.82;;;;;;;19.17;55.59;101611.31;4998415;28;20041;-61
2021/10/06 04:40:13;;;;;;;1.77;0.98;;;;;;;19.17;55.58;101600.66;5032853;28;20045;-61
2021/10/06 04:42:39;;;;;;;2.63;0.95;;;;;;;19.16;55.80;101607.81;5031989;28;20778;-61
2021/10/06 04:45:05;;;;;;;2.13;0.88;;;;;;;19.19;55.62;101622.59;5003956;28;20170;-61
2021/10/06 04:47:30;;;;;;;2.38;0.93;;;;;;;19.17;55.35;101611.31;5012826;28;20038;-63
2021/10/06 04:49:56;;;;;;;2.42;1.00;;;;;;;19.18;55.41;101607.66;5012480;28;20041;-61
2021/10/06 04:52:22;;;;;;;3.65;1.15;;;;;;;19.17;55.42;101616.63;5012815;28;20066;-61
2021/10/06 04:54:48;;;;;;;2.88;1.25;;;;;;;19.17;55.37;101620.13;5000775;28;20034;-61
2021/10/06 04:57:13;;;;;;;2.25;0.90;;;;;;;19.17;55.74;101628.09;5032269;28;20037;-61
2021/10/06 04:59:39;;;;;;;1.63;1.02;;;;;;;19.17;55.59;101628.09;5031391;28;20396;-61
2021/10/06 05:02:04;;;;;;;2.90;1.10;;;;;;;19.17;55.48;101619.28;5013646;28;20045;-62
2021/10/06 05:04:30;;;;;;;2.08;1.00;;;;;;;19.17;55.64;101624.63;5031989;28;20116;-62
2021/10/06 05:06:56;;;;;;;3.10;1.00;;;;;;;19.18;55.92;101623.59;5007361;28;20067;-65
2021/10/06 05:09:21;;;;;;;1.70;0.90;;;;;;;19.17;55.48;101627.28;5012234;28;20049;-61
2021/10/06 05:11:47;;;;;;;1.58;0.77;;;;;;;19.17;55.58;101632.59;5012008;28;20046;-61
2021/10/06 05:14:12;;;;;;;1.80;1.05;;;;;;;19.16;55.66;101629.09;5011567;28;20034;-61
2021/10/06 05:16:38;;;;;;;2.28;1.00;;;;;;;19.16;55.41;101637.09;4996714;28;20041;-61
2021/10/06 05:19:03;;;;;;;1.10;0.82;;;;;;;19.17;55.68;101649.38;5013595;28;20902;-61
2021/10/06 05:21:29;;;;;;;1.45;0.70;;;;;;;19.17;55.69;101653.88;5013981;28;20049;-61
2021/10/06 05:23:55;;;;;;;1.55;0.82;;;;;;;19.17;55.73;101653.88;5013520;28;20171;-61
2021/10/06 05:26:20;;;;;;;2.10;1.00;;;;;;;19.16;55.74;101645.06;5030952;28;20398;-62
2021/10/06 05:28:46;;;;;;;2.78;0.90;;;;;;;19.17;55.61;101648.53;4993639;28;20034;-61
2021/10/06 05:31:11;;;;;;;1.52;0.98;;;;;;;19.17;55.87;101651.22;5010696;28;20034;-61
2021/10/06 05:33:37;;;;;;;1.88;0.80;;;;;;;19.16;55.59;101647.72;4993914;28;20030;-61
2021/10/06 05:36:05;;;;;;;2.22;1.00;;;;;;;19.16;55.91;101655.69;5011515;28;20030;-61
2021/10/06 05:38:31;;;;;;;1.20;0.75;;;;;;;19.15;56.07;101646.91;5029025;28;20029;-61
2021/10/06 05:40:56;;;;;;;1.50;0.80;;;;;;;19.15;55.63;101652.22;5031119;28;20033;-61
2021/10/06 05:43:22;;;;;;;0.77;0.70;;;;;;;19.15;56.10;101652.22;5030729;28;20025;-61
2021/10/06 05:45:47;;;;;;;1.50;0.70;;;;;;;19.14;55.94;101658.53;5030913;28;20056;-61
2021/10/06 05:48:13;;;;;;;1.23;0.80;;;;;;;19.13;55.98;101659.53;4998040;28;20111;-61
2021/10/06 05:50:39;;;;;;;2.00;0.88;;;;;;;19.14;55.70;101663.84;4994000;28;20042;-61
2021/10/06 05:53:05;;;;;;;2.67;0.93;;;;;;;19.15;55.68;101672.66;4993674;28;20129;-61
2021/10/06 05:55:31;;;;;;;1.73;0.77;;;;;;;19.15;55.85;101670.00;5011478;28;20120;-61
2021/10/06 05:57:57;;;;;;;1.88;1.13;;;;;;;19.15;55.78;101672.66;5023266;28;20045;-61
2021/10/06 06:00:22;;;;;;;1.48;0.80;;;;;;;19.14;55.70;101671.84;5011940;28;20108;-61
2021/10/06 06:02:48;;;;;;;1.88;0.82;;;;;;;19.13;55.81;101670.19;5030157;28;20479;-61
2021/10/06 06:05:16;;;;;;;2.25;0.73;;;;;;;19.14;56.02;101671.00;5012888;28;20789;-61
2021/10/06 06:07:42;;;;;;;1.83;0.80;;;;;;;19.13;55.93;101675.50;5002269;28;20038;-61
2021/10/06 06:10:08;;;;;;;3.03;0.80;;;;;;;19.13;55.77;101675.50;4993165;28;20084;-61
2021/10/06 06:12:34;;;;;;;2.13;0.90;;;;;;;19.13;56.01;101672.84;4993180;28;20038;-62
2021/10/06 06:14:59;;;;;;;1.17;0.82;;;;;;;19.13;55.60;101670.19;5010571;28;20061;-62
2021/10/06 06:17:25;;;;;;;1.40;0.90;;;;;;;19.14;55.82;101676.31;5021019;28;20034;-61
2021/10/06 06:19:51;;;;;;;2.30;0.88;;;;;;;19.13;55.99;101670.19;5030676;28;20041;-61
2021/10/06 06:22:16;;;;;;;1.23;0.80;;;;;;;19.13;56.07;101675.50;5012897;28;20095;-62
2021/10/06 06:24:42;;;;;;;2.30;0.80;;;;;;;19.12;55.67;101668.53;5012840;28;20029;-61
2021/10/06 06:27:07;;;;;;;2.63;0.95;;;;;;;19.13;56.09;101674.66;5004272;28;20040;-61
2021/10/06 06:29:34;;;;;;;1.20;0.80;;;;;;;19.13;56.09;101683.47;4992893;28;20072;-61
2021/10/06 06:31:59;;;;;;;2.20;1.05;;;;;;;19.14;55.83;101684.31;4992501;28;20140;-61
2021/10/06 06:34:25;;;;;;;2.92;0.90;;;;;;;19.12;56.07;101679.16;5010718;28;20544;-61
2021/10/06 06:36:51;;;;;;;4.18;1.10;;;;;;;19.13;56.12;101680.00;5015626;28;20040;-63
2021/10/06 06:39:16;;;;;;;1.55;0.85;;;;;;;19.11;56.00;101682.81;5030411;28;20037;-61
2021/10/06 06:41:42;;;;;;;1.83;0.90;;;;;;;19.12;56.11;101681.00;5030161;28;20113;-61
2021/10/06 06:44:07;;;;;;;2.47;0.80;;;;;;;19.11;55.91;101685.47;4994176;28;20141;-61
2021/10/06 06:46:33;;;;;;;1.20;0.70;;;;;;;19.10;55.90;101681.16;5026593;28;20038;-61
2021/10/06 06:48:58;;;;;;;1.10;0.77;;;;;;;19.10;55.97;101675.84;4979280;28;20060;-61
2021/10/06 06:51:24;;;;;;;2.30;0.70;;;;;;;19.10;55.87;101681.16;5012194;28;20049;-61
2021/10/06 06:53:52;;;;;;;3.10;1.00;;;;;;;19.10;55.87;101688.31;5030228;28;20454;-61
2021/10/06 06:56:18;;;;;;;1.83;0.80;;;;;;;19.11;56.02;101693.47;5029008;28;20121;-61
2021/10/06 06:58:43;;;;;;;1.58;0.73;;;;;;;19.09;55.78;101692.81;5009964;28;20037;-60
2021/10/06 07:01:09;;;;;;;1.63;0.90;;;;;;;19.11;56.00;101701.44;5009562;28;20054;-61
2021/10/06 07:03:34;;;;;;;1.15;0.70;;;;;;;19.10;55.95;101714.91;4993531;28;20069;-61
2021/10/06 07:06:00;;;;;;;1.38;0.85;;;;;;;19.10;55.70;101718.41;4992175;28;20029;-60
2021/10/06 07:08:25;;;;;;;1.23;0.80;;;;;;;19.10;55.80;101725.56;5009936;28;20034;-61
2021/10/06 07:10:51;;;;;;;1.27;0.80;;;;;;;19.10;55.64;101718.41;5010073;28;20124;-61
2021/10/06 07:13:16;;;;;;;1.05;0.70;;;;;;;19.09;55.75;101724.72;5023364;28;20037;-61
2021/10/06 07:15:41;;;;;;;1.75;0.82;;;;;;;19.09;55.78;101727.38;5029193;28;20376;-61
2021/10/06 07:18:07;;;;;;;1.15;0.88;;;;;;;19.09;55.84;101731.84;5029329;28;20045;-61
2021/10/06 07:20:32;;;;;;;1.67;0.98;;;;;;;19.08;55.71;101731.00;5034992;28;20112;-60
2021/10/06 07:22:58;;;;;;;1.48;0.80;;;;;;;19.08;55.96;101731.00;5019215;28;20030;-60
2021/10/06 07:25:24;;;;;;;1.88;0.82;;;;;;;19.09;56.23;101738.03;4992203;28;20034;-60
2021/10/06 07:27:49;;;;;;;2.47;0.98;;;;;;;19.08;56.56;101739.00;4994989;28;20058;-60
2021/10/06 07:30:15;;;;;;;3.47;0.90;;;;;;;19.08;56.59;101741.66;5008426;28;20034;-60
2021/10/06 07:32:40;;;;;;;2.28;0.93;;;;;;;19.09;56.55;101745.13;5027452;28;20041;-60
2021/10/06 07:35:06;;;;;;;8.15;1.13;;;;;;;19.09;56.92;101743.34;5028904;28;20033;-60
2021/10/06 07:37:32;;;;;;;4.07;1.30;;;;;;;19.11;57.12;101754.63;5003243;28;20068;-60
2021/10/06 07:39:58;;;;;;;4.63;1.17;;;;;;;19.09;57.11;101743.34;5009806;28;20467;-60
2021/10/06 07:42:23;;;;;;;4.45;1.20;;;;;;;19.10;57.48;101757.47;4999529;28;20041;-61
2021/10/06 07:44:49;;;;;;;6.43;1.10;;;;;;;19.11;57.40;101757.28;5027755;28;20380;-61
2021/10/06 07:47:15;;;;;;;11.35;1.85;;;;;;;19.12;57.14;101750.13;5010400;28;20802;-64
2021/10/06 07:49:42;;;;;;;9.32;1.42;;;;;;;19.12;57.35;101750.97;5009090;28;20479;-61
2021/10/06 07:52:10;;;;;;;4.68;1.67;;;;;;;19.12;57.94;101748.31;5009097;28;20069;-61
2021/10/06 07:54:37;;;;;;;8.27;1.60;;;;;;;19.14;57.90;101743.66;4999654;28;20510;-61
2021/10/06 07:57:03;;;;;;;7.55;1.17;;;;;;;19.13;57.72;101731.34;5007064;28;20028;-61
2021/10/06 07:59:28;;;;;;;6.63;1.60;;;;;;;19.13;57.88;101739.31;5015434;28;20042;-61
2021/10/06 08:01:53;;;;;;;6.68;2.13;;;;;;;19.12;57.69;101726.22;5006048;28;20441;-65
2021/10/06 08:04:19;;;;;;;11.20;1.90;;;;;;;19.12;58.10;101728.88;5006538;28;20483;-61
2021/10/06 08:06:45;;;;;;;9.10;1.83;;;;;;;19.10;57.81;101731.69;5007578;28;20629;-64
2021/10/06 08:09:10;;;;;;;7.30;1.92;;;;;;;19.09;57.62;101730.03;4989407;28;20034;-62
2021/10/06 08:11:36;;;;;;;6.68;1.70;;;;;;;19.07;57.44;101732.00;4974454;28;20038;-62
2021/10/06 08:14:02;;;;;;;9.27;1.65;;;;;;;19.07;56.93;101734.66;5007539;28;20034;-62
2021/10/06 08:16:27;;;;;;;6.97;1.70;;;;;;;19.07;57.12;101741.81;5007579;28;20038;-62
2021/10/06 08:18:53;;;;;;;6.50;1.50;;;;;;;19.05;56.86;101739.34;5008740;28;20034;-62
2021/10/06 08:21:19;;;;;;;6.65;1.75;;;;;;;19.04;56.86;101745.66;5008326;28;20100;-62
2021/10/06 08:23:45;;;;;;;5.30;1.60;;;;;;;19.03;56.60;101746.66;4991134;28;20435;-62
2021/10/06 08:26:11;;;;;;;6.90;1.60;;;;;;;19.03;56.52;101749.31;4990684;28;20033;-61
2021/10/06 08:28:37;;;;;;;6.15;1.67;;;;;;;19.03;56.52;101751.16;5008829;28;20037;-62
2021/10/06 08:31:02;;;;;;;8.10;1.58;;;;;;;19.02;56.72;101747.66;5008471;28;20040;-61
2021/10/06 08:33:28;;;;;;;6.57;1.30;;;;;;;19.03;56.26;101753.81;5009072;28;20040;-61
2021/10/06 08:35:54;;;;;;;5.78;1.38;;;;;;;19.00;56.52;101752.31;5009163;28;20050;-62
2021/10/06 08:38:20;;;;;;;6.25;1.42;;;;;;;19.02;56.54;101762.78;5008796;28;20022;-62
2021/10/06 08:40:46;;;;;;;7.07;1.52;;;;;;;19.00;55.89;101757.66;5009041;28;20062;-62
2021/10/06 08:43:12;;;;;;;7.32;1.60;;;;;;;19.00;56.06;101756.81;5008591;28;20468;-61
2021/10/06 08:45:38;;;;;;;5.53;1.85;;;;;;;18.99;56.04;101760.47;5008323;28;20034;-61
2021/10/06 08:48:07;;;;;;;6.35;1.50;;;;;;;18.98;56.14;101762.31;5008471;28;20620;-62
2021/10/06 08:50:33;;;;;;;6.18;1.52;;;;;;;18.98;55.93;101756.16;4990936;28;20037;-62
2021/10/06 08:52:59;;;;;;;7.47;1.20;;;;;;;18.97;56.26;101757.97;5008933;28;20042;-63
2021/10/06 08:55:28;;;;;;;4.43;1.50;;;;;;;18.97;56.00;101749.19;4991043;28;20077;-62
2021/10/06 08:58:02;;;;;;;8.90;1.58;;;;;;;18.95;56.27;101735.22;4990806;28;20030;-61
2021/10/06 09:00:29;;;;;;;7.57;1.42;;;;;;;18.97;56.17;101742.03;5008215;28;20108;-61
2021/10/06 09:02:55;;;;;;;5.25;1.45;;;;;;;18.97;56.12;101742.03;4991303;28;20038;-62
2021/10/06 09:05:22;;;;;;;9.55;2.50;;;;;;;18.97;55.86;101734.06;5008416;28;20378;-62
2021/10/06 09:07:57;;;;;;;5.22;1.48;;;;;;;18.96;55.65;101736.88;5011668;28;20490;-61
2021/10/06 09:10:24;;;;;;;3.10;1.30;;;;;;;18.97;55.73;101736.72;5012376;28;20040;-61
2021/10/06 09:13:03;;;;;;;4.68;1.50;;;;;;;18.94;55.77;101731.75;5011846;28;20038;-62
2021/10/06 09:15:44;;;;;;;4.93;1.10;;;;;;;18.93;56.17;101724.75;5011699;28;20056;-62
2021/10/06 09:18:12;;;;;;;5.57;1.30;;;;;;;18.96;55.83;101721.75;4994158;28;20672;-62
2021/10/06 09:20:38;;;;;;;4.00;1.10;;;;;;;18.97;55.90;101738.53;5012089;28;20044;-62
2021/10/06 09:23:07;;;;;;;4.07;1.45;;;;;;;18.96;55.66;101731.56;5011756;28;20050;-61
2021/10/06 09:25:46;;;;;;;4.47;1.40;;;;;;;18.93;55.86;101718.59;5011978;28;20029;-61
2021/10/06 09:28:31;;;;;;;4.82;1.10;;;;;;;18.94;55.57;101720.28;5011844;28;20395;-61
2021/10/06 09:31:08;;;;;;;5.00;1.55;;;;;;;18.94;55.88;101733.56;5011636;28;20069;-61
2021/10/06 09:33:44;;;;;;;6.60;1.63;;;;;;;18.93;55.61;101727.41;5011809;28;20038;-62
2021/10/06 09:36:15;;;;;;;6.95;1.20;;;;;;;18.95;55.62;101719.28;5011215;28;20530;-62
2021/10/06 09:38:55;;;;;;;3.85;1.13;;;;;;;18.95;55.56;101712.13;5011668;28;20037;-64
2021/10/06 09:41:44;;;;;;;5.93;1.30;;;;;;;18.90;55.88;101717.09;5011551;28;20030;-62
2021/10/06 09:44:20;;;;;;;4.85;1.08;;;;;;;18.96;55.91;101723.59;4997920;28;20046;-62
2021/10/06 09:46:46;;;;;;;4.80;1.42;;;;;;;18.98;55.87;101721.59;5011296;28;20471;-62
2021/10/06 09:49:21;;;;;;;4.78;1.35;;;;;;;18.95;55.70;101717.44;5011178;28;20033;-61
2021/10/06 09:51:47;;;;;;;5.40;1.13;;;;;;;18.96;55.75;101729.75;5011261;28;20526;-62
2021/10/06 09:54:13;;;;;;;3.38;0.88;;;;;;;18.97;55.83;101728.75;5010921;28;20030;-61
2021/10/06 09:56:44;;;;;;;5.05;1.00;;;;;;;18.96;55.83;101724.44;5011061;28;20498;-62
2021/10/06 09:59:13;;;;;;;4.25;1.00;;;;;;;18.98;55.57;101730.41;5010441;28;20070;-62
2021/10/06 10:01:40;;;;;;;5.30;1.13;;;;;;;18.98;55.65;101724.25;5011126;28;20033;-61
2021/10/06 10:04:07;;;;;;;6.50;1.42;;;;;;;18.97;55.52;101728.75;5010977;28;20034;-62
2021/10/06 10:06:33;;;;;;;4.97;1.15;;;;;;;18.97;54.88;101723.41;5011364;28;20170;-61
2021/10/06 10:09:02;;;;;;;6.22;1.10;;;;;;;18.97;55.08;101733.22;5011269;28;20088;-62
2021/10/06 10:11:28;;;;;;;4.95;1.42;;;;;;;18.96;54.61;101727.09;5011173;28;20037;-61
2021/10/06 10:13:54;;;;;;;3.63;0.90;;;;;;;18.95;54.76;101728.09;5010714;28;20611;-61
2021/10/06 10:16:21;;;;;;;4.75;1.10;;;;;;;18.95;54.84;101722.75;5010378;28;20037;-63
2021/10/06 10:18:47;;;;;;;3.63;0.95;;;;;;;18.95;54.84;101729.91;5010953;28;20463;-61
2021/10/06 10:21:14;;;;;;;5.82;1.00;;;;;;;18.93;54.46;101734.53;5010819;28;20471;-62
2021/10/06 10:23:40;;;;;;;3.05;0.90;;;;;;;18.92;54.39;101746.19;5010956;28;20132;-62
2021/10/06 10:26:05;;;;;;;5.68;1.20;;;;;;;18.91;54.34;101732.06;5010830;28;20122;-61
2021/10/06 10:28:41;;;;;;;3.58;0.75;;;;;;;18.88;54.47;101729.75;5010408;28;20041;-62
2021/10/06 10:31:06;;;;;;;2.50;0.95;;;;;;;18.91;54.44;101728.56;5010164;28;20034;-61
2021/10/06 10:33:47;;;;;;;3.65;1.10;;;;;;;18.87;54.23;101721.94;5010795;28;20124;-62
2021/10/06 10:36:49;;;;;;;2.88;0.80;;;;;;;18.85;54.03;101722.94;5010390;28;20088;-62
2021/10/06 10:39:48;;;;;;;3.05;0.85;;;;;;;18.86;54.11;101718.44;4992572;28;20775;-62
2021/10/06 10:42:13;;;;;;;2.72;0.70;;;;;;;18.91;53.94;101726.75;5010356;28;20061;-61
2021/10/06 10:44:41;;;;;;;1.50;0.65;;;;;;;18.89;53.79;101727.91;4992477;28;20849;-61
2021/10/06 10:47:07;;;;;;;3.00;0.98;;;;;;;18.89;53.76;101730.56;4992643;28;20080;-62
2021/10/06 10:49:47;;;;;;;2.88;0.90;;;;;;;18.86;53.15;101731.75;5010433;28;20045;-61
2021/10/06 10:52:15;;;;;;;3.60;0.88;;;;;;;18.88;53.45;101719.09;5010281;28;20030;-61
2021/10/06 10:54:43;;;;;;;2.22;0.70;;;;;;;18.89;53.16;101719.94;5010301;28;20033;-61
2021/10/06 10:57:26;;;;;;;4.43;1.13;;;;;;;18.84;53.42;101725.78;5009783;28;20391;-61
2021/10/06 10:59:57;;;;;;;2.28;0.70;;;;;;;18.88;53.13;101727.09;5009704;28;20065;-61
2021/10/06 11:02:31;;;;;;;1.85;0.70;;;;;;;18.83;52.89;101721.47;5009589;28;20038;-62
2021/10/06 11:04:59;;;;;;;2.22;0.85;;;;;;;18.83;53.11;101718.81;4992574;28;20022;-61
2021/10/06 11:07:25;;;;;;;4.82;0.80;;;;;;;18.83;52.81;101710.81;4992309;28;20406;-62
2021/10/06 11:10:15;;;;;;;7.78;1.33;;;;;;;18.79;53.18;101706.84;4992641;28;20128;-61
2021/10/06 11:12:43;;;;;;;2.40;0.90;;;;;;;18.82;53.13;101703.84;5009651;28;20061;-61
2021/10/06 11:15:16;;;;;;;3.33;0.73;;;;;;;18.80;52.78;101703.19;5009656;28;20065;-61
2021/10/06 11:18:06;;;;;;;2.25;1.15;;;;;;;18.74;52.85;101701.19;5009908;28;20080;-61
2021/10/06 11:20:45;;;;;;;2.95;0.80;;;;;;;18.75;53.20;101703.69;5009623;28;20029;-61
2021/10/06 11:23:33;;;;;;;4.68;0.80;;;;;;;18.73;53.02;101718.16;4992097;28;20057;-62